Detall de PIREP

Printer-friendly versionPDF version

[2013/01/19 07:24:00]
Flight IATA:CT0001
Pilot Number:041
Company ICAO:CAT
Aircraft Type:A320/E
PAX:95
Departing Airport: LEDA
Destination Airport: LEVC
Alternate Airport:LEBL
Online: VATSIM
Route:DCT OSVAK H110 SEROX A34 SAURA DCT
Flight Level:F170
No Slew and time accel
No pause
Crash detect
Detect pilot in Cockpit between each 30 and 45 minutes
07:24 Zero fuel Weight: 134051 Lbs, Fuel Weight: 8600 Lbs
07:24 VATSIM:LEDA 181500Z VRB01KT 9999 SCT010 10/07 Q1002
07:24 VATSIM:LEVC 190700Z VRB02KT 9999 SCT030 15/08 Q0990 NOSIG
07:24 VOICE CATALONIAN
07:33 Parking Brakes off
07:37 Take-off
07:37 Take off Weight: 141728 Lbs
07:37 Wind: 177º @ 001 Knots Heading: 133º
07:37 POS N41º 43´ 13´´ E000º 32´ 46´´
07:37 Flaps:3 at 173 Knots
07:37 Gear Up: 175 Knots
07:37 Flaps:2 at 185 Knots
07:38 Flaps:1 at 186 Knots
07:38 Flaps:0 at 177 Knots
07:43 TOC
07:43 Fuel Weight:5798 Lb
07:52 Wind:000º@000 Knots Heading: 196º Ground Speed: 373 Knots Altitude 16282 ft
07:53 TOD
07:53 Fuel Weight: 4335 Lb
08:07 Wind:000º@000 Knots Heading: 266º Ground Speed: 218 Knots Altitude 3139 ft
08:07 Flaps:1 at 206 Knots
08:07 Flaps:3 at 200 Knots
08:08 Flaps:4 at 189 Knots
08:08 Gear Down: 176 Knots
08:08 Flaps:5 at 160 Knots
08:10 TouchDown:Rate -225 ft/min Speed: 130 Knots
08:10 VATSIM:LEVC 190730Z 00000KT 9999 FEW025 BKN040 15/08 Q0990 NOSIG
08:10 Land
08:10 Wind:000º@000 Knots
08:10 Heading: 295º
08:10 Flight Duration: 00:33
08:10 Landing Weight: 136973 Lbs
08:10 POS N39º 29´ 22´´ W000º 28´ 55´´
08:12 Parking brakes on
08:12 Block to Block Duration: 00:39
08:12 Final Fuel: 2720 Lbls
08:12 Spent Fuel: 5879 Lbls
08:12 Flight Length: 162 NM
08:12 TOD Land Length: 71 NM

Exportar CSV

Powered by Drupal - Modified by Danger4k